sensor_id;sensor_type;location;lat;lon;timestamp;P1;durP1;ratioP1;P2;durP2;ratioP2
39442;SDS011;25147;52.142;9.960;2023-04-23T00:01:04;4.45;;;3.88;;
39442;SDS011;25147;52.142;9.960;2023-04-23T00:03:32;5.05;;;4.55;;
39442;SDS011;25147;52.142;9.960;2023-04-23T00:06:01;5.03;;;4.10;;
39442;SDS011;25147;52.142;9.960;2023-04-23T00:08:30;4.32;;;3.95;;
39442;SDS011;25147;52.142;9.960;2023-04-23T00:10:58;5.13;;;4.28;;
39442;SDS011;25147;52.142;9.960;2023-04-23T00:13:25;7.80;;;4.57;;
39442;SDS011;25147;52.142;9.960;2023-04-23T00:15:52;4.05;;;3.75;;
39442;SDS011;25147;52.142;9.960;2023-04-23T00:18:21;5.22;;;4.50;;
39442;SDS011;25147;52.142;9.960;2023-04-23T00:20:47;4.45;;;3.60;;
39442;SDS011;25147;52.142;9.960;2023-04-23T00:23:14;4.82;;;4.40;;
39442;SDS011;25147;52.142;9.960;2023-04-23T00:25:41;6.10;;;4.40;;
39442;SDS011;25147;52.142;9.960;2023-04-23T00:28:08;5.40;;;4.15;;
39442;SDS011;25147;52.142;9.960;2023-04-23T00:30:35;5.03;;;4.13;;
39442;SDS011;25147;52.142;9.960;2023-04-23T00:33:02;4.60;;;3.97;;
39442;SDS011;25147;52.142;9.960;2023-04-23T00:35:30;4.93;;;3.90;;
39442;SDS011;25147;52.142;9.960;2023-04-23T00:37:56;4.28;;;3.80;;
39442;SDS011;25147;52.142;9.960;2023-04-23T00:40:23;4.90;;;4.50;;
39442;SDS011;25147;52.142;9.960;2023-04-23T00:42:50;4.40;;;4.00;;
39442;SDS011;25147;52.142;9.960;2023-04-23T00:45:18;5.47;;;3.83;;
39442;SDS011;25147;52.142;9.960;2023-04-23T00:47:45;4.47;;;4.13;;
39442;SDS011;25147;52.142;9.960;2023-04-23T00:50:12;4.30;;;3.97;;
39442;SDS011;25147;52.142;9.960;2023-04-23T00:52:40;4.70;;;4.30;;
39442;SDS011;25147;52.142;9.960;2023-04-23T00:55:07;4.10;;;3.60;;
39442;SDS011;25147;52.142;9.960;2023-04-23T00:57:35;4.03;;;3.72;;
39442;SDS011;25147;52.142;9.960;2023-04-23T01:00:03;5.13;;;3.90;;
39442;SDS011;25147;52.142;9.960;2023-04-23T01:02:32;5.93;;;3.80;;
39442;SDS011;25147;52.142;9.960;2023-04-23T01:05:01;4.93;;;4.50;;
39442;SDS011;25147;52.142;9.960;2023-04-23T01:07:30;4.38;;;3.92;;
39442;SDS011;25147;52.142;9.960;2023-04-23T01:10:01;3.72;;;3.42;;
39442;SDS011;25147;52.142;9.960;2023-04-23T01:12:29;4.90;;;4.47;;
39442;SDS011;25147;52.142;9.960;2023-04-23T01:14:56;4.60;;;4.20;;
39442;SDS011;25147;52.142;9.960;2023-04-23T01:17:24;4.30;;;3.90;;
39442;SDS011;25147;52.142;9.960;2023-04-23T01:19:51;4.57;;;4.18;;
39442;SDS011;25147;52.142;9.960;2023-04-23T01:22:19;4.72;;;4.28;;
39442;SDS011;25147;52.142;9.960;2023-04-23T01:24:46;5.50;;;3.83;;
39442;SDS011;25147;52.142;9.960;2023-04-23T01:27:14;4.53;;;3.75;;
39442;SDS011;25147;52.142;9.960;2023-04-23T01:29:41;5.45;;;4.40;;
39442;SDS011;25147;52.142;9.960;2023-04-23T01:32:08;4.40;;;4.00;;
39442;SDS011;25147;52.142;9.960;2023-04-23T01:34:35;4.57;;;4.18;;
39442;SDS011;25147;52.142;9.960;2023-04-23T01:37:03;5.38;;;4.38;;
39442;SDS011;25147;52.142;9.960;2023-04-23T01:39:31;4.13;;;3.83;;
39442;SDS011;25147;52.142;9.960;2023-04-23T01:41:58;5.10;;;4.53;;
39442;SDS011;25147;52.142;9.960;2023-04-23T01:44:25;4.38;;;4.07;;
39442;SDS011;25147;52.142;9.960;2023-04-23T01:46:52;4.78;;;4.38;;
39442;SDS011;25147;52.142;9.960;2023-04-23T01:49:19;5.05;;;4.35;;
39442;SDS011;25147;52.142;9.960;2023-04-23T01:51:46;4.50;;;4.20;;
39442;SDS011;25147;52.142;9.960;2023-04-23T01:54:12;5.05;;;4.63;;
39442;SDS011;25147;52.142;9.960;2023-04-23T01:56:40;5.05;;;4.55;;
39442;SDS011;25147;52.142;9.960;2023-04-23T01:59:07;5.63;;;4.40;;
39442;SDS011;25147;52.142;9.960;2023-04-23T02:01:41;5.70;;;4.68;;
39442;SDS011;25147;52.142;9.960;2023-04-23T02:04:09;4.93;;;4.47;;
39442;SDS011;25147;52.142;9.960;2023-04-23T02:06:38;8.30;;;4.95;;
39442;SDS011;25147;52.142;9.960;2023-04-23T02:09:05;6.63;;;5.50;;
39442;SDS011;25147;52.142;9.960;2023-04-23T02:11:32;5.90;;;5.40;;
39442;SDS011;25147;52.142;9.960;2023-04-23T02:14:01;7.60;;;6.88;;
39442;SDS011;25147;52.142;9.960;2023-04-23T02:16:28;7.80;;;7.10;;
39442;SDS011;25147;52.142;9.960;2023-04-23T02:18:55;8.70;;;7.75;;
39442;SDS011;25147;52.142;9.960;2023-04-23T02:21:22;8.18;;;7.47;;
39442;SDS011;25147;52.142;9.960;2023-04-23T02:23:50;10.15;;;9.25;;
39442;SDS011;25147;52.142;9.960;2023-04-23T02:26:17;10.35;;;9.45;;
39442;SDS011;25147;52.142;9.960;2023-04-23T02:28:44;10.25;;;9.35;;
39442;SDS011;25147;52.142;9.960;2023-04-23T02:31:12;11.50;;;10.43;;
39442;SDS011;25147;52.142;9.960;2023-04-23T02:33:40;12.05;;;10.95;;
39442;SDS011;25147;52.142;9.960;2023-04-23T02:36:07;11.73;;;10.63;;
39442;SDS011;25147;52.142;9.960;2023-04-23T02:38:34;12.15;;;11.05;;
39442;SDS011;25147;52.142;9.960;2023-04-23T02:41:01;13.25;;;11.95;;
39442;SDS011;25147;52.142;9.960;2023-04-23T02:43:28;12.93;;;11.65;;
39442;SDS011;25147;52.142;9.960;2023-04-23T02:45:54;13.30;;;12.00;;
39442;SDS011;25147;52.142;9.960;2023-04-23T02:48:22;14.32;;;13.02;;
39442;SDS011;25147;52.142;9.960;2023-04-23T02:50:51;15.60;;;14.10;;
39442;SDS011;25147;52.142;9.960;2023-04-23T02:53:18;16.17;;;14.65;;
39442;SDS011;25147;52.142;9.960;2023-04-23T02:55:45;16.73;;;15.13;;
39442;SDS011;25147;52.142;9.960;2023-04-23T02:58:11;16.42;;;14.80;;
39442;SDS011;25147;52.142;9.960;2023-04-23T03:00:38;16.80;;;15.18;;
39442;SDS011;25147;52.142;9.960;2023-04-23T03:03:05;17.80;;;16.05;;
39442;SDS011;25147;52.142;9.960;2023-04-23T03:05:33;18.25;;;16.30;;
39442;SDS011;25147;52.142;9.960;2023-04-23T03:07:59;18.15;;;16.35;;
39442;SDS011;25147;52.142;9.960;2023-04-23T03:10:26;20.33;;;18.30;;
39442;SDS011;25147;52.142;9.960;2023-04-23T03:12:53;19.23;;;17.42;;
39442;SDS011;25147;52.142;9.960;2023-04-23T03:15:20;22.60;;;20.33;;
39442;SDS011;25147;52.142;9.960;2023-04-23T03:17:47;21.77;;;19.60;;
39442;SDS011;25147;52.142;9.960;2023-04-23T03:20:15;21.92;;;19.58;;
39442;SDS011;25147;52.142;9.960;2023-04-23T03:22:43;24.73;;;22.25;;
39442;SDS011;25147;52.142;9.960;2023-04-23T03:25:10;25.27;;;21.85;;
39442;SDS011;25147;52.142;9.960;2023-04-23T03:27:37;25.10;;;22.58;;
39442;SDS011;25147;52.142;9.960;2023-04-23T03:30:04;23.60;;;21.20;;
39442;SDS011;25147;52.142;9.960;2023-04-23T03:32:32;25.00;;;22.50;;
39442;SDS011;25147;52.142;9.960;2023-04-23T03:34:58;25.52;;;22.92;;
39442;SDS011;25147;52.142;9.960;2023-04-23T03:37:25;24.50;;;21.95;;
39442;SDS011;25147;52.142;9.960;2023-04-23T03:39:54;25.80;;;23.23;;
39442;SDS011;25147;52.142;9.960;2023-04-23T03:42:20;27.77;;;24.80;;
39442;SDS011;25147;52.142;9.960;2023-04-23T03:44:47;26.95;;;24.00;;
39442;SDS011;25147;52.142;9.960;2023-04-23T03:47:14;27.35;;;24.42;;
39442;SDS011;25147;52.142;9.960;2023-04-23T03:49:41;28.90;;;25.75;;
39442;SDS011;25147;52.142;9.960;2023-04-23T03:52:08;27.40;;;24.38;;
39442;SDS011;25147;52.142;9.960;2023-04-23T03:54:34;27.17;;;23.83;;
39442;SDS011;25147;52.142;9.960;2023-04-23T03:57:03;27.17;;;24.27;;
39442;SDS011;25147;52.142;9.960;2023-04-23T03:59:29;28.25;;;25.35;;
39442;SDS011;25147;52.142;9.960;2023-04-23T04:01:56;30.52;;;26.10;;
39442;SDS011;25147;52.142;9.960;2023-04-23T04:04:23;31.73;;;28.42;;
39442;SDS011;25147;52.142;9.960;2023-04-23T04:06:50;29.77;;;26.58;;
39442;SDS011;25147;52.142;9.960;2023-04-23T04:09:16;31.95;;;28.48;;
39442;SDS011;25147;52.142;9.960;2023-04-23T04:11:43;30.48;;;27.27;;
39442;SDS011;25147;52.142;9.960;2023-04-23T04:14:11;32.33;;;28.70;;
39442;SDS011;25147;52.142;9.960;2023-04-23T04:16:38;34.10;;;29.13;;
39442;SDS011;25147;52.142;9.960;2023-04-23T04:19:05;31.63;;;28.23;;
39442;SDS011;25147;52.142;9.960;2023-04-23T04:21:32;34.13;;;30.42;;
39442;SDS011;25147;52.142;9.960;2023-04-23T04:23:58;32.92;;;29.23;;
39442;SDS011;25147;52.142;9.960;2023-04-23T04:26:26;33.92;;;29.65;;
39442;SDS011;25147;52.142;9.960;2023-04-23T04:28:53;36.60;;;30.50;;
39442;SDS011;25147;52.142;9.960;2023-04-23T04:31:24;35.55;;;31.30;;
39442;SDS011;25147;52.142;9.960;2023-04-23T04:33:52;35.67;;;31.75;;
39442;SDS011;25147;52.142;9.960;2023-04-23T04:36:19;36.17;;;30.98;;
39442;SDS011;25147;52.142;9.960;2023-04-23T04:38:47;37.65;;;31.70;;
39442;SDS011;25147;52.142;9.960;2023-04-23T04:41:15;38.63;;;31.55;;
39442;SDS011;25147;52.142;9.960;2023-04-23T04:43:42;35.72;;;31.20;;
39442;SDS011;25147;52.142;9.960;2023-04-23T04:46:09;39.88;;;32.80;;
39442;SDS011;25147;52.142;9.960;2023-04-23T04:48:37;36.85;;;32.47;;
39442;SDS011;25147;52.142;9.960;2023-04-23T04:51:04;37.47;;;32.08;;
39442;SDS011;25147;52.142;9.960;2023-04-23T04:53:31;39.45;;;32.88;;
39442;SDS011;25147;52.142;9.960;2023-04-23T04:55:58;40.15;;;33.83;;
39442;SDS011;25147;52.142;9.960;2023-04-23T04:58:24;42.40;;;34.00;;
39442;SDS011;25147;52.142;9.960;2023-04-23T05:00:51;40.72;;;33.55;;
39442;SDS011;25147;52.142;9.960;2023-04-23T05:03:18;44.47;;;33.78;;
39442;SDS011;25147;52.142;9.960;2023-04-23T05:05:47;38.75;;;33.45;;
39442;SDS011;25147;52.142;9.960;2023-04-23T05:08:13;41.63;;;35.03;;
39442;SDS011;25147;52.142;9.960;2023-04-23T05:10:41;43.17;;;33.97;;
39442;SDS011;25147;52.142;9.960;2023-04-23T05:13:08;39.78;;;32.72;;
39442;SDS011;25147;52.142;9.960;2023-04-23T05:15:35;41.55;;;34.95;;
39442;SDS011;25147;52.142;9.960;2023-04-23T05:18:02;43.00;;;35.58;;
39442;SDS011;25147;52.142;9.960;2023-04-23T05:20:30;42.08;;;34.45;;
39442;SDS011;25147;52.142;9.960;2023-04-23T05:22:58;41.20;;;35.40;;
39442;SDS011;25147;52.142;9.960;2023-04-23T05:25:26;42.40;;;34.15;;
39442;SDS011;25147;52.142;9.960;2023-04-23T05:27:54;38.70;;;33.63;;
39442;SDS011;25147;52.142;9.960;2023-04-23T05:30:21;37.63;;;33.10;;
39442;SDS011;25147;52.142;9.960;2023-04-23T05:32:48;38.63;;;32.58;;
39442;SDS011;25147;52.142;9.960;2023-04-23T05:35:15;40.80;;;33.95;;
39442;SDS011;25147;52.142;9.960;2023-04-23T05:37:41;38.28;;;32.30;;
39442;SDS011;25147;52.142;9.960;2023-04-23T05:40:10;40.72;;;34.50;;
39442;SDS011;25147;52.142;9.960;2023-04-23T05:42:37;39.00;;;33.15;;
39442;SDS011;25147;52.142;9.960;2023-04-23T05:45:07;40.25;;;34.28;;
39442;SDS011;25147;52.142;9.960;2023-04-23T05:47:34;41.35;;;34.83;;
39442;SDS011;25147;52.142;9.960;2023-04-23T05:50:01;42.35;;;35.22;;
39442;SDS011;25147;52.142;9.960;2023-04-23T05:52:27;39.67;;;33.15;;
39442;SDS011;25147;52.142;9.960;2023-04-23T05:54:57;40.47;;;33.45;;
39442;SDS011;25147;52.142;9.960;2023-04-23T05:57:26;41.80;;;35.22;;
39442;SDS011;25147;52.142;9.960;2023-04-23T05:59:52;42.63;;;35.75;;
39442;SDS011;25147;52.142;9.960;2023-04-23T06:02:19;42.00;;;35.05;;
39442;SDS011;25147;52.142;9.960;2023-04-23T06:04:46;40.85;;;34.63;;
39442;SDS011;25147;52.142;9.960;2023-04-23T06:07:13;45.58;;;36.85;;
39442;SDS011;25147;52.142;9.960;2023-04-23T06:09:40;42.40;;;34.28;;
39442;SDS011;25147;52.142;9.960;2023-04-23T06:12:07;42.83;;;34.75;;
39442;SDS011;25147;52.142;9.960;2023-04-23T06:14:35;42.75;;;35.00;;
39442;SDS011;25147;52.142;9.960;2023-04-23T06:17:01;41.72;;;36.35;;
39442;SDS011;25147;52.142;9.960;2023-04-23T06:19:28;42.05;;;34.83;;
39442;SDS011;25147;52.142;9.960;2023-04-23T06:21:55;39.20;;;34.35;;
39442;SDS011;25147;52.142;9.960;2023-04-23T06:24:21;40.28;;;34.30;;
39442;SDS011;25147;52.142;9.960;2023-04-23T06:26:48;39.95;;;33.45;;
39442;SDS011;25147;52.142;9.960;2023-04-23T06:29:15;40.97;;;34.38;;
39442;SDS011;25147;52.142;9.960;2023-04-23T06:31:43;39.33;;;34.35;;
39442;SDS011;25147;52.142;9.960;2023-04-23T06:34:10;36.92;;;32.03;;
39442;SDS011;25147;52.142;9.960;2023-04-23T06:36:36;37.85;;;32.05;;
39442;SDS011;25147;52.142;9.960;2023-04-23T06:39:03;36.45;;;32.42;;
39442;SDS011;25147;52.142;9.960;2023-04-23T06:41:30;35.80;;;31.17;;
39442;SDS011;25147;52.142;9.960;2023-04-23T06:43:56;37.67;;;32.45;;
39442;SDS011;25147;52.142;9.960;2023-04-23T06:46:23;38.38;;;32.67;;
39442;SDS011;25147;52.142;9.960;2023-04-23T06:48:51;35.45;;;31.42;;
39442;SDS011;25147;52.142;9.960;2023-04-23T06:51:18;39.85;;;33.88;;
39442;SDS011;25147;52.142;9.960;2023-04-23T06:53:45;37.78;;;32.15;;
39442;SDS011;25147;52.142;9.960;2023-04-23T06:56:12;35.65;;;31.35;;
39442;SDS011;25147;52.142;9.960;2023-04-23T06:58:39;35.05;;;30.90;;
39442;SDS011;25147;52.142;9.960;2023-04-23T07:01:05;36.35;;;31.23;;
39442;SDS011;25147;52.142;9.960;2023-04-23T07:03:32;33.58;;;29.88;;
39442;SDS011;25147;52.142;9.960;2023-04-23T07:06:02;33.47;;;29.63;;
39442;SDS011;25147;52.142;9.960;2023-04-23T07:08:29;31.80;;;27.95;;
39442;SDS011;25147;52.142;9.960;2023-04-23T07:10:55;32.97;;;29.17;;
39442;SDS011;25147;52.142;9.960;2023-04-23T07:13:22;35.30;;;30.73;;
39442;SDS011;25147;52.142;9.960;2023-04-23T07:15:49;31.88;;;28.45;;
39442;SDS011;25147;52.142;9.960;2023-04-23T07:18:16;32.90;;;29.25;;
39442;SDS011;25147;52.142;9.960;2023-04-23T07:20:42;35.03;;;29.85;;
39442;SDS011;25147;52.142;9.960;2023-04-23T07:23:11;31.40;;;28.00;;
39442;SDS011;25147;52.142;9.960;2023-04-23T07:25:38;30.92;;;27.45;;
39442;SDS011;25147;52.142;9.960;2023-04-23T07:28:04;35.75;;;31.48;;
39442;SDS011;25147;52.142;9.960;2023-04-23T07:30:31;33.70;;;27.65;;
39442;SDS011;25147;52.142;9.960;2023-04-23T07:32:58;32.88;;;29.25;;
39442;SDS011;25147;52.142;9.960;2023-04-23T07:35:25;33.05;;;29.45;;
39442;SDS011;25147;52.142;9.960;2023-04-23T07:37:52;34.13;;;30.15;;
39442;SDS011;25147;52.142;9.960;2023-04-23T07:40:21;33.75;;;29.30;;
39442;SDS011;25147;52.142;9.960;2023-04-23T07:42:49;31.67;;;27.65;;
39442;SDS011;25147;52.142;9.960;2023-04-23T07:45:18;32.33;;;28.83;;
39442;SDS011;25147;52.142;9.960;2023-04-23T07:47:48;32.22;;;27.42;;
39442;SDS011;25147;52.142;9.960;2023-04-23T07:50:16;28.65;;;25.65;;
39442;SDS011;25147;52.142;9.960;2023-04-23T07:52:43;31.00;;;26.63;;
39442;SDS011;25147;52.142;9.960;2023-04-23T07:55:10;29.65;;;26.45;;
39442;SDS011;25147;52.142;9.960;2023-04-23T07:57:38;27.40;;;24.60;;
39442;SDS011;25147;52.142;9.960;2023-04-23T08:00:05;28.77;;;25.67;;
39442;SDS011;25147;52.142;9.960;2023-04-23T08:02:34;30.33;;;26.80;;
39442;SDS011;25147;52.142;9.960;2023-04-23T08:05:01;32.88;;;28.45;;
39442;SDS011;25147;52.142;9.960;2023-04-23T08:07:28;28.67;;;24.50;;
39442;SDS011;25147;52.142;9.960;2023-04-23T08:09:55;24.60;;;22.00;;
39442;SDS011;25147;52.142;9.960;2023-04-23T08:12:26;22.05;;;19.73;;
39442;SDS011;25147;52.142;9.960;2023-04-23T08:14:55;21.38;;;19.08;;
39442;SDS011;25147;52.142;9.960;2023-04-23T08:17:22;21.85;;;19.50;;
39442;SDS011;25147;52.142;9.960;2023-04-23T08:19:49;23.55;;;20.73;;
39442;SDS011;25147;52.142;9.960;2023-04-23T08:22:16;20.63;;;18.20;;
39442;SDS011;25147;52.142;9.960;2023-04-23T08:24:43;18.27;;;15.20;;
39442;SDS011;25147;52.142;9.960;2023-04-23T08:27:10;19.10;;;16.15;;
39442;SDS011;25147;52.142;9.960;2023-04-23T08:29:37;17.92;;;15.85;;
39442;SDS011;25147;52.142;9.960;2023-04-23T08:32:05;14.52;;;13.02;;
39442;SDS011;25147;52.142;9.960;2023-04-23T08:34:32;13.93;;;12.32;;
39442;SDS011;25147;52.142;9.960;2023-04-23T08:36:59;13.63;;;12.23;;
39442;SDS011;25147;52.142;9.960;2023-04-23T08:39:26;13.35;;;11.82;;
39442;SDS011;25147;52.142;9.960;2023-04-23T08:41:54;13.50;;;12.10;;
39442;SDS011;25147;52.142;9.960;2023-04-23T08:44:24;13.90;;;12.35;;
39442;SDS011;25147;52.142;9.960;2023-04-23T08:46:52;13.75;;;11.75;;
39442;SDS011;25147;52.142;9.960;2023-04-23T08:49:21;14.07;;;11.63;;
39442;SDS011;25147;52.142;9.960;2023-04-23T08:51:49;13.50;;;11.75;;
39442;SDS011;25147;52.142;9.960;2023-04-23T08:54:20;11.63;;;10.43;;
39442;SDS011;25147;52.142;9.960;2023-04-23T08:56:51;10.75;;;9.65;;
39442;SDS011;25147;52.142;9.960;2023-04-23T08:59:21;10.98;;;9.85;;
39442;SDS011;25147;52.142;9.960;2023-04-23T09:01:48;11.25;;;10.15;;
39442;SDS011;25147;52.142;9.960;2023-04-23T09:04:15;11.43;;;9.60;;
39442;SDS011;25147;52.142;9.960;2023-04-23T09:06:46;9.85;;;8.85;;
39442;SDS011;25147;52.142;9.960;2023-04-23T09:09:13;9.63;;;8.73;;
39442;SDS011;25147;52.142;9.960;2023-04-23T09:11:42;10.25;;;9.32;;
39442;SDS011;25147;52.142;9.960;2023-04-23T09:14:13;10.30;;;8.98;;
39442;SDS011;25147;52.142;9.960;2023-04-23T09:16:39;10.02;;;8.60;;
39442;SDS011;25147;52.142;9.960;2023-04-23T09:19:07;10.23;;;9.23;;
39442;SDS011;25147;52.142;9.960;2023-04-23T09:21:36;14.00;;;11.55;;
39442;SDS011;25147;52.142;9.960;2023-04-23T09:24:08;12.02;;;10.77;;
39442;SDS011;25147;52.142;9.960;2023-04-23T09:26:40;11.77;;;10.30;;
39442;SDS011;25147;52.142;9.960;2023-04-23T09:29:11;11.40;;;9.23;;
39442;SDS011;25147;52.142;9.960;2023-04-23T09:31:41;12.10;;;10.90;;
39442;SDS011;25147;52.142;9.960;2023-04-23T09:34:39;10.95;;;9.85;;
39442;SDS011;25147;52.142;9.960;2023-04-23T09:37:00;10.35;;;9.35;;
39442;SDS011;25147;52.142;9.960;2023-04-23T09:39:31;9.98;;;8.98;;
39442;SDS011;25147;52.142;9.960;2023-04-23T09:42:01;11.43;;;10.32;;
39442;SDS011;25147;52.142;9.960;2023-04-23T09:44:30;12.82;;;11.63;;
39442;SDS011;25147;52.142;9.960;2023-04-23T09:47:05;10.02;;;9.02;;
39442;SDS011;25147;52.142;9.960;2023-04-23T09:49:43;13.02;;;10.13;;
39442;SDS011;25147;52.142;9.960;2023-04-23T09:52:11;9.43;;;8.50;;
39442;SDS011;25147;52.142;9.960;2023-04-23T09:54:39;9.75;;;8.75;;
39442;SDS011;25147;52.142;9.960;2023-04-23T09:57:06;11.32;;;10.20;;
39442;SDS011;25147;52.142;9.960;2023-04-23T09:59:34;12.70;;;9.93;;
39442;SDS011;25147;52.142;9.960;2023-04-23T10:02:02;7.80;;;7.10;;
39442;SDS011;25147;52.142;9.960;2023-04-23T10:04:31;7.57;;;6.70;;
39442;SDS011;25147;52.142;9.960;2023-04-23T10:07:00;8.40;;;6.95;;
39442;SDS011;25147;52.142;9.960;2023-04-23T10:09:29;8.35;;;6.13;;
39442;SDS011;25147;52.142;9.960;2023-04-23T10:11:58;7.43;;;6.80;;
39442;SDS011;25147;52.142;9.960;2023-04-23T10:14:27;7.68;;;6.95;;
39442;SDS011;25147;52.142;9.960;2023-04-23T10:16:56;6.55;;;5.90;;
39442;SDS011;25147;52.142;9.960;2023-04-23T10:19:24;6.80;;;6.20;;
39442;SDS011;25147;52.142;9.960;2023-04-23T10:21:54;6.68;;;6.03;;
39442;SDS011;25147;52.142;9.960;2023-04-23T10:24:25;7.25;;;6.65;;
39442;SDS011;25147;52.142;9.960;2023-04-23T10:26:55;7.93;;;7.15;;
39442;SDS011;25147;52.142;9.960;2023-04-23T10:29:26;7.40;;;6.78;;
39442;SDS011;25147;52.142;9.960;2023-04-23T10:31:54;7.45;;;6.68;;
39442;SDS011;25147;52.142;9.960;2023-04-23T10:34:23;6.65;;;5.90;;
39442;SDS011;25147;52.142;9.960;2023-04-23T10:36:55;6.70;;;6.10;;
39442;SDS011;25147;52.142;9.960;2023-04-23T10:39:24;5.78;;;5.28;;
39442;SDS011;25147;52.142;9.960;2023-04-23T10:41:53;5.95;;;5.40;;
39442;SDS011;25147;52.142;9.960;2023-04-23T10:44:35;6.15;;;5.55;;
39442;SDS011;25147;52.142;9.960;2023-04-23T10:47:02;6.70;;;6.10;;
39442;SDS011;25147;52.142;9.960;2023-04-23T10:49:31;6.30;;;5.70;;
39442;SDS011;25147;52.142;9.960;2023-04-23T10:52:00;6.18;;;5.57;;
39442;SDS011;25147;52.142;9.960;2023-04-23T10:54:46;6.43;;;5.80;;
39442;SDS011;25147;52.142;9.960;2023-04-23T10:57:15;5.10;;;4.55;;
39442;SDS011;25147;52.142;9.960;2023-04-23T10:59:54;5.18;;;4.78;;
39442;SDS011;25147;52.142;9.960;2023-04-23T11:02:41;5.07;;;4.57;;
39442;SDS011;25147;52.142;9.960;2023-04-23T11:05:11;5.03;;;4.63;;
39442;SDS011;25147;52.142;9.960;2023-04-23T11:07:41;4.82;;;4.43;;
39442;SDS011;25147;52.142;9.960;2023-04-23T11:10:31;7.13;;;4.20;;
39442;SDS011;25147;52.142;9.960;2023-04-23T11:13:19;5.22;;;4.72;;
39442;SDS011;25147;52.142;9.960;2023-04-23T11:19:00;5.45;;;4.95;;
39442;SDS011;25147;52.142;9.960;2023-04-23T11:21:55;5.30;;;4.90;;
39442;SDS011;25147;52.142;9.960;2023-04-23T11:24:28;5.20;;;4.70;;
39442;SDS011;25147;52.142;9.960;2023-04-23T11:27:01;6.57;;;4.32;;
39442;SDS011;25147;52.142;9.960;2023-04-23T11:29:49;3.65;;;3.45;;
39442;SDS011;25147;52.142;9.960;2023-04-23T11:32:21;3.85;;;3.55;;
39442;SDS011;25147;52.142;9.960;2023-04-23T11:34:54;4.43;;;2.97;;
39442;SDS011;25147;52.142;9.960;2023-04-23T11:37:23;4.03;;;3.65;;
39442;SDS011;25147;52.142;9.960;2023-04-23T11:39:50;3.28;;;3.08;;
39442;SDS011;25147;52.142;9.960;2023-04-23T11:42:16;3.88;;;3.58;;
39442;SDS011;25147;52.142;9.960;2023-04-23T11:44:44;4.15;;;3.78;;
39442;SDS011;25147;52.142;9.960;2023-04-23T11:47:12;4.15;;;3.85;;
39442;SDS011;25147;52.142;9.960;2023-04-23T11:49:42;4.43;;;3.58;;
39442;SDS011;25147;52.142;9.960;2023-04-23T11:52:10;3.97;;;3.10;;
39442;SDS011;25147;52.142;9.960;2023-04-23T11:54:38;3.67;;;3.08;;
39442;SDS011;25147;52.142;9.960;2023-04-23T11:57:06;3.20;;;2.90;;
39442;SDS011;25147;52.142;9.960;2023-04-23T11:59:32;3.67;;;2.85;;
39442;SDS011;25147;52.142;9.960;2023-04-23T12:01:59;2.50;;;2.40;;
39442;SDS011;25147;52.142;9.960;2023-04-23T12:04:27;3.03;;;2.50;;
39442;SDS011;25147;52.142;9.960;2023-04-23T12:06:56;2.67;;;2.47;;
39442;SDS011;25147;52.142;9.960;2023-04-23T12:09:30;3.20;;;2.90;;
39442;SDS011;25147;52.142;9.960;2023-04-23T12:11:57;2.75;;;2.30;;
39442;SDS011;25147;52.142;9.960;2023-04-23T12:14:25;2.67;;;2.40;;
39442;SDS011;25147;52.142;9.960;2023-04-23T12:16:54;3.92;;;2.90;;
39442;SDS011;25147;52.142;9.960;2023-04-23T12:19:25;3.20;;;2.90;;
39442;SDS011;25147;52.142;9.960;2023-04-23T12:21:53;2.88;;;2.67;;
39442;SDS011;25147;52.142;9.960;2023-04-23T12:24:23;2.88;;;2.38;;
39442;SDS011;25147;52.142;9.960;2023-04-23T12:26:51;3.53;;;2.40;;
39442;SDS011;25147;52.142;9.960;2023-04-23T12:29:20;2.42;;;2.22;;
39442;SDS011;25147;52.142;9.960;2023-04-23T12:31:49;2.95;;;2.00;;
39442;SDS011;25147;52.142;9.960;2023-04-23T12:34:16;2.25;;;1.63;;
39442;SDS011;25147;52.142;9.960;2023-04-23T12:36:45;1.67;;;1.58;;
39442;SDS011;25147;52.142;9.960;2023-04-23T12:39:19;3.63;;;1.58;;
39442;SDS011;25147;52.142;9.960;2023-04-23T12:41:58;4.10;;;2.17;;
39442;SDS011;25147;52.142;9.960;2023-04-23T12:44:27;2.20;;;2.00;;
39442;SDS011;25147;52.142;9.960;2023-04-23T12:46:55;3.20;;;2.17;;
39442;SDS011;25147;52.142;9.960;2023-04-23T12:49:23;3.33;;;2.38;;
39442;SDS011;25147;52.142;9.960;2023-04-23T12:51:51;2.28;;;2.10;;
39442;SDS011;25147;52.142;9.960;2023-04-23T12:54:22;1.70;;;1.60;;
39442;SDS011;25147;52.142;9.960;2023-04-23T12:56:51;2.65;;;1.98;;
39442;SDS011;25147;52.142;9.960;2023-04-23T12:59:18;1.85;;;1.70;;
39442;SDS011;25147;52.142;9.960;2023-04-23T13:01:45;1.60;;;1.50;;
39442;SDS011;25147;52.142;9.960;2023-04-23T13:04:12;2.25;;;1.73;;
39442;SDS011;25147;52.142;9.960;2023-04-23T13:06:39;1.80;;;1.67;;
39442;SDS011;25147;52.142;9.960;2023-04-23T13:09:06;1.33;;;1.23;;
39442;SDS011;25147;52.142;9.960;2023-04-23T13:11:36;1.40;;;1.30;;
39442;SDS011;25147;52.142;9.960;2023-04-23T13:14:06;1.50;;;1.40;;
39442;SDS011;25147;52.142;9.960;2023-04-23T13:16:33;4.68;;;1.33;;
39442;SDS011;25147;52.142;9.960;2023-04-23T13:19:00;2.05;;;1.33;;
39442;SDS011;25147;52.142;9.960;2023-04-23T13:21:28;1.50;;;1.30;;
39442;SDS011;25147;52.142;9.960;2023-04-23T13:23:55;1.20;;;1.10;;
39442;SDS011;25147;52.142;9.960;2023-04-23T13:26:23;1.10;;;1.05;;
39442;SDS011;25147;52.142;9.960;2023-04-23T13:28:50;1.70;;;1.00;;
39442;SDS011;25147;52.142;9.960;2023-04-23T13:31:18;1.83;;;1.40;;
39442;SDS011;25147;52.142;9.960;2023-04-23T13:33:45;2.70;;;1.60;;
39442;SDS011;25147;52.142;9.960;2023-04-23T13:36:12;1.42;;;1.33;;
39442;SDS011;25147;52.142;9.960;2023-04-23T13:38:38;1.27;;;1.17;;
39442;SDS011;25147;52.142;9.960;2023-04-23T13:41:05;1.58;;;1.48;;
39442;SDS011;25147;52.142;9.960;2023-04-23T13:43:32;1.45;;;1.35;;
39442;SDS011;25147;52.142;9.960;2023-04-23T13:45:59;4.32;;;1.40;;
39442;SDS011;25147;52.142;9.960;2023-04-23T13:48:27;3.30;;;1.75;;
39442;SDS011;25147;52.142;9.960;2023-04-23T13:50:55;1.40;;;1.30;;
39442;SDS011;25147;52.142;9.960;2023-04-23T13:53:22;2.65;;;1.50;;
39442;SDS011;25147;52.142;9.960;2023-04-23T13:55:49;2.42;;;1.85;;
39442;SDS011;25147;52.142;9.960;2023-04-23T13:58:16;1.77;;;1.60;;
39442;SDS011;25147;52.142;9.960;2023-04-23T14:00:43;2.47;;;1.73;;
39442;SDS011;25147;52.142;9.960;2023-04-23T14:03:10;2.30;;;2.10;;
39442;SDS011;25147;52.142;9.960;2023-04-23T14:05:39;2.45;;;2.10;;
39442;SDS011;25147;52.142;9.960;2023-04-23T14:08:05;2.47;;;2.25;;
39442;SDS011;25147;52.142;9.960;2023-04-23T14:10:32;2.78;;;2.58;;
39442;SDS011;25147;52.142;9.960;2023-04-23T14:12:59;2.45;;;2.25;;
39442;SDS011;25147;52.142;9.960;2023-04-23T14:15:27;2.67;;;2.47;;
39442;SDS011;25147;52.142;9.960;2023-04-23T14:17:54;2.50;;;2.30;;
39442;SDS011;25147;52.142;9.960;2023-04-23T14:20:21;2.50;;;2.30;;
39442;SDS011;25147;52.142;9.960;2023-04-23T14:22:49;3.92;;;2.60;;
39442;SDS011;25147;52.142;9.960;2023-04-23T14:25:28;3.80;;;2.78;;
39442;SDS011;25147;52.142;9.960;2023-04-23T14:27:56;2.45;;;2.25;;
39442;SDS011;25147;52.142;9.960;2023-04-23T14:30:26;2.75;;;2.50;;
39442;SDS011;25147;52.142;9.960;2023-04-23T14:32:54;2.80;;;2.33;;
39442;SDS011;25147;52.142;9.960;2023-04-23T14:35:22;2.75;;;2.40;;
39442;SDS011;25147;52.142;9.960;2023-04-23T14:37:51;2.70;;;2.50;;
39442;SDS011;25147;52.142;9.960;2023-04-23T14:40:17;3.95;;;2.72;;
39442;SDS011;25147;52.142;9.960;2023-04-23T14:42:47;2.50;;;2.30;;
39442;SDS011;25147;52.142;9.960;2023-04-23T14:45:14;2.45;;;2.25;;